sensor_id;sensor_type;location;lat;lon;timestamp;temperature;humidity
70421;SHT31;57848;51.938;15.520;2023-02-11T00:00:48;2.33;79.85
70421;SHT31;57848;51.938;15.520;2023-02-11T00:03:14;2.29;79.82
70421;SHT31;57848;51.938;15.520;2023-02-11T00:05:39;2.29;80.11
70421;SHT31;57848;51.938;15.520;2023-02-11T00:08:05;2.30;79.86
70421;SHT31;57848;51.938;15.520;2023-02-11T00:10:30;2.30;79.85
70421;SHT31;57848;51.938;15.520;2023-02-11T00:12:55;2.26;79.78
70421;SHT31;57848;51.938;15.520;2023-02-11T00:15:21;2.22;80.02
70421;SHT31;57848;51.938;15.520;2023-02-11T00:17:46;2.22;79.99
70421;SHT31;57848;51.938;15.520;2023-02-11T00:20:12;2.22;79.99
70421;SHT31;57848;51.938;15.520;2023-02-11T00:22:37;2.26;79.78
70421;SHT31;57848;51.938;15.520;2023-02-11T00:25:03;2.23;79.77
70421;SHT31;57848;51.938;15.520;2023-02-11T00:27:28;2.23;79.63
70421;SHT31;57848;51.938;15.520;2023-02-11T00:29:54;2.17;79.65
70421;SHT31;57848;51.938;15.520;2023-02-11T00:32:19;2.16;79.98
70421;SHT31;57848;51.938;15.520;2023-02-11T00:34:44;2.16;79.98
70421;SHT31;57848;51.938;15.520;2023-02-11T00:37:10;2.17;80.04
70421;SHT31;57848;51.938;15.520;2023-02-11T00:39:36;2.17;79.80
70421;SHT31;57848;51.938;15.520;2023-02-11T00:42:02;2.12;79.74
70421;SHT31;57848;51.938;15.520;2023-02-11T00:44:27;2.07;79.91
70421;SHT31;57848;51.938;15.520;2023-02-11T00:46:52;2.06;79.92
70421;SHT31;57848;51.938;15.520;2023-02-11T00:49:18;2.05;79.90
70421;SHT31;57848;51.938;15.520;2023-02-11T00:51:43;2.03;80.03
70421;SHT31;57848;51.938;15.520;2023-02-11T00:54:09;2.03;80.16
70421;SHT31;57848;51.938;15.520;2023-02-11T00:56:34;2.03;80.08
70421;SHT31;57848;51.938;15.520;2023-02-11T00:59:00;2.01;80.07
70421;SHT31;57848;51.938;15.520;2023-02-11T01:01:25;1.95;80.30
70421;SHT31;57848;51.938;15.520;2023-02-11T01:03:51;1.93;80.31
70421;SHT31;57848;51.938;15.520;2023-02-11T01:06:16;1.91;80.34
70421;SHT31;57848;51.938;15.520;2023-02-11T01:08:42;1.91;80.35
70421;SHT31;57848;51.938;15.520;2023-02-11T01:11:13;1.92;80.19
70421;SHT31;57848;51.938;15.520;2023-02-11T01:13:39;1.95;80.25
70421;SHT31;57848;51.938;15.520;2023-02-11T01:16:09;1.91;80.22
70421;SHT31;57848;51.938;15.520;2023-02-11T01:18:35;1.91;80.16
70421;SHT31;57848;51.938;15.520;2023-02-11T01:21:01;1.91;80.31
70421;SHT31;57848;51.938;15.520;2023-02-11T01:23:26;1.89;80.28
70421;SHT31;57848;51.938;15.520;2023-02-11T01:25:52;1.92;80.11
70421;SHT31;57848;51.938;15.520;2023-02-11T01:28:24;1.98;80.01
70421;SHT31;57848;51.938;15.520;2023-02-11T01:30:51;1.93;79.87
70421;SHT31;57848;51.938;15.520;2023-02-11T01:33:17;1.95;80.02
70421;SHT31;57848;51.938;15.520;2023-02-11T01:35:43;1.86;80.19
70421;SHT31;57848;51.938;15.520;2023-02-11T01:38:14;1.86;80.22
70421;SHT31;57848;51.938;15.520;2023-02-11T01:40:55;1.96;80.08
70421;SHT31;57848;51.938;15.520;2023-02-11T01:43:22;1.89;80.29
70421;SHT31;57848;51.938;15.520;2023-02-11T01:48:37;1.89;80.11
70421;SHT31;57848;51.938;15.520;2023-02-11T01:51:13;1.89;80.10
70421;SHT31;57848;51.938;15.520;2023-02-11T01:53:41;1.93;80.30
70421;SHT31;57848;51.938;15.520;2023-02-11T01:56:26;1.93;80.25
70421;SHT31;57848;51.938;15.520;2023-02-11T01:59:16;1.91;80.34
70421;SHT31;57848;51.938;15.520;2023-02-11T02:01:47;1.91;80.30
70421;SHT31;57848;51.938;15.520;2023-02-11T02:04:16;1.86;80.43
70421;SHT31;57848;51.938;15.520;2023-02-11T02:06:47;1.91;80.44
70421;SHT31;57848;51.938;15.520;2023-02-11T02:09:27;1.91;80.51
70421;SHT31;57848;51.938;15.520;2023-02-11T02:11:53;1.91;80.42
70421;SHT31;57848;51.938;15.520;2023-02-11T02:14:19;1.85;80.79
70421;SHT31;57848;51.938;15.520;2023-02-11T02:16:45;1.92;80.55
70421;SHT31;57848;51.938;15.520;2023-02-11T02:19:29;1.96;80.37
70421;SHT31;57848;51.938;15.520;2023-02-11T02:22:35;1.96;80.60
70421;SHT31;57848;51.938;15.520;2023-02-11T02:27:55;1.95;80.64
70421;SHT31;57848;51.938;15.520;2023-02-11T02:35:26;2.15;80.28
70421;SHT31;57848;51.938;15.520;2023-02-11T02:40:35;2.33;80.08
70421;SHT31;57848;51.938;15.520;2023-02-11T02:43:03;2.43;79.91
70421;SHT31;57848;51.938;15.520;2023-02-11T02:45:29;2.50;79.73
70421;SHT31;57848;51.938;15.520;2023-02-11T02:47:54;2.50;79.84
70421;SHT31;57848;51.938;15.520;2023-02-11T02:50:23;2.47;79.88
70421;SHT31;57848;51.938;15.520;2023-02-11T02:58:48;2.65;79.77
70421;SHT31;57848;51.938;15.520;2023-02-11T03:04:07;2.70;79.86
70421;SHT31;57848;51.938;15.520;2023-02-11T03:06:52;2.61;80.03
70421;SHT31;57848;51.938;15.520;2023-02-11T03:10:08;2.74;79.74
70421;SHT31;57848;51.938;15.520;2023-02-11T03:12:36;2.81;79.58
70421;SHT31;57848;51.938;15.520;2023-02-11T03:15:04;2.80;79.42
70421;SHT31;57848;51.938;15.520;2023-02-11T03:17:32;2.78;79.55
70421;SHT31;57848;51.938;15.520;2023-02-11T03:20:00;2.81;79.48
70421;SHT31;57848;51.938;15.520;2023-02-11T03:22:34;2.83;79.56
70421;SHT31;57848;51.938;15.520;2023-02-11T03:25:02;2.87;79.53
70421;SHT31;57848;51.938;15.520;2023-02-11T03:30:29;2.83;79.76
70421;SHT31;57848;51.938;15.520;2023-02-11T03:33:09;2.87;79.75
70421;SHT31;57848;51.938;15.520;2023-02-11T03:35:49;2.92;79.75
70421;SHT31;57848;51.938;15.520;2023-02-11T03:38:23;2.87;79.87
70421;SHT31;57848;51.938;15.520;2023-02-11T03:40:51;2.92;79.97
70421;SHT31;57848;51.938;15.520;2023-02-11T03:43:22;3.04;79.78
70421;SHT31;57848;51.938;15.520;2023-02-11T03:45:51;3.02;79.80
70421;SHT31;57848;51.938;15.520;2023-02-11T03:48:27;2.95;80.12
70421;SHT31;57848;51.938;15.520;2023-02-11T03:50:54;3.01;80.11
70421;SHT31;57848;51.938;15.520;2023-02-11T03:53:21;2.99;80.14
70421;SHT31;57848;51.938;15.520;2023-02-11T03:55:49;3.06;80.15
70421;SHT31;57848;51.938;15.520;2023-02-11T03:58:15;2.98;80.51
70421;SHT31;57848;51.938;15.520;2023-02-11T04:00:42;3.04;80.48
70421;SHT31;57848;51.938;15.520;2023-02-11T04:03:08;3.02;80.56
70421;SHT31;57848;51.938;15.520;2023-02-11T04:05:34;3.01;80.95
70421;SHT31;57848;51.938;15.520;2023-02-11T04:07:59;3.01;81.60
70421;SHT31;57848;51.938;15.520;2023-02-11T04:10:25;2.98;81.81
70421;SHT31;57848;51.938;15.520;2023-02-11T04:12:50;3.01;82.13
70421;SHT31;57848;51.938;15.520;2023-02-11T04:15:16;2.98;82.58
70421;SHT31;57848;51.938;15.520;2023-02-11T04:17:42;2.95;83.05
70421;SHT31;57848;51.938;15.520;2023-02-11T04:20:08;2.99;83.02
70421;SHT31;57848;51.938;15.520;2023-02-11T04:22:33;2.95;83.43
70421;SHT31;57848;51.938;15.520;2023-02-11T04:24:59;2.99;83.46
70421;SHT31;57848;51.938;15.520;2023-02-11T04:27:24;2.88;83.98
70421;SHT31;57848;51.938;15.520;2023-02-11T04:29:50;2.94;84.02
70421;SHT31;57848;51.938;15.520;2023-02-11T04:32:15;2.96;84.08
70421;SHT31;57848;51.938;15.520;2023-02-11T04:34:41;2.96;84.49
70421;SHT31;57848;51.938;15.520;2023-02-11T04:37:06;2.99;84.68
70421;SHT31;57848;51.938;15.520;2023-02-11T04:39:33;2.92;85.10
70421;SHT31;57848;51.938;15.520;2023-02-11T04:41:58;2.96;85.24
70421;SHT31;57848;51.938;15.520;2023-02-11T04:44:24;3.02;85.24
70421;SHT31;57848;51.938;15.520;2023-02-11T04:46:49;2.96;85.62
70421;SHT31;57848;51.938;15.520;2023-02-11T04:49:15;2.91;85.73
70421;SHT31;57848;51.938;15.520;2023-02-11T04:51:41;2.98;85.69
70421;SHT31;57848;51.938;15.520;2023-02-11T04:54:07;3.06;85.67
70421;SHT31;57848;51.938;15.520;2023-02-11T04:56:32;3.04;85.77
70421;SHT31;57848;51.938;15.520;2023-02-11T04:58:58;2.99;86.05
70421;SHT31;57848;51.938;15.520;2023-02-11T05:01:24;2.99;86.43
70421;SHT31;57848;51.938;15.520;2023-02-11T05:03:49;3.05;86.02
70421;SHT31;57848;51.938;15.520;2023-02-11T05:06:15;2.98;86.41
70421;SHT31;57848;51.938;15.520;2023-02-11T05:08:41;2.95;86.76
70421;SHT31;57848;51.938;15.520;2023-02-11T05:11:07;2.99;86.89
70421;SHT31;57848;51.938;15.520;2023-02-11T05:13:32;2.98;87.08
70421;SHT31;57848;51.938;15.520;2023-02-11T05:15:58;2.98;87.28
70421;SHT31;57848;51.938;15.520;2023-02-11T05:18:23;3.01;87.37
70421;SHT31;57848;51.938;15.520;2023-02-11T05:20:48;3.01;87.31
70421;SHT31;57848;51.938;15.520;2023-02-11T05:23:14;3.01;87.33
70421;SHT31;57848;51.938;15.520;2023-02-11T05:25:39;3.06;87.04
70421;SHT31;57848;51.938;15.520;2023-02-11T05:28:05;3.11;86.89
70421;SHT31;57848;51.938;15.520;2023-02-11T05:30:31;3.06;86.99
70421;SHT31;57848;51.938;15.520;2023-02-11T05:32:56;3.06;87.07
70421;SHT31;57848;51.938;15.520;2023-02-11T05:35:22;3.09;87.03
70421;SHT31;57848;51.938;15.520;2023-02-11T05:37:47;3.12;86.98
70421;SHT31;57848;51.938;15.520;2023-02-11T05:40:13;3.11;87.14
70421;SHT31;57848;51.938;15.520;2023-02-11T05:42:38;3.09;87.27
70421;SHT31;57848;51.938;15.520;2023-02-11T05:45:04;3.13;87.37
70421;SHT31;57848;51.938;15.520;2023-02-11T05:47:30;3.16;87.40
70421;SHT31;57848;51.938;15.520;2023-02-11T05:49:55;3.18;87.41
70421;SHT31;57848;51.938;15.520;2023-02-11T05:52:21;3.11;87.59
70421;SHT31;57848;51.938;15.520;2023-02-11T05:54:47;3.18;87.66
70421;SHT31;57848;51.938;15.520;2023-02-11T05:57:13;3.12;87.60
70421;SHT31;57848;51.938;15.520;2023-02-11T05:59:38;3.15;87.60
70421;SHT31;57848;51.938;15.520;2023-02-11T06:02:04;3.15;87.56
70421;SHT31;57848;51.938;15.520;2023-02-11T06:04:29;3.11;87.54
70421;SHT31;57848;51.938;15.520;2023-02-11T06:06:55;3.15;87.55
70421;SHT31;57848;51.938;15.520;2023-02-11T06:09:21;3.13;87.40
70421;SHT31;57848;51.938;15.520;2023-02-11T06:11:46;3.16;87.54
70421;SHT31;57848;51.938;15.520;2023-02-11T06:14:11;3.19;87.12
70421;SHT31;57848;51.938;15.520;2023-02-11T06:16:38;3.32;86.94
70421;SHT31;57848;51.938;15.520;2023-02-11T06:19:03;3.25;87.06
70421;SHT31;57848;51.938;15.520;2023-02-11T06:21:29;3.33;86.89
70421;SHT31;57848;51.938;15.520;2023-02-11T06:23:54;3.30;86.96
70421;SHT31;57848;51.938;15.520;2023-02-11T06:26:21;3.32;86.94
70421;SHT31;57848;51.938;15.520;2023-02-11T06:28:47;3.35;86.82
70421;SHT31;57848;51.938;15.520;2023-02-11T06:31:13;3.36;86.75
70421;SHT31;57848;51.938;15.520;2023-02-11T06:33:39;3.36;86.75
70421;SHT31;57848;51.938;15.520;2023-02-11T06:36:15;3.36;86.86
70421;SHT31;57848;51.938;15.520;2023-02-11T06:38:41;3.40;86.79
70421;SHT31;57848;51.938;15.520;2023-02-11T06:41:11;3.43;86.73
70421;SHT31;57848;51.938;15.520;2023-02-11T06:43:37;3.44;86.76
70421;SHT31;57848;51.938;15.520;2023-02-11T06:46:03;3.43;87.09
70421;SHT31;57848;51.938;15.520;2023-02-11T06:48:28;3.50;87.03
70421;SHT31;57848;51.938;15.520;2023-02-11T06:50:54;3.56;86.83
70421;SHT31;57848;51.938;15.520;2023-02-11T06:53:19;3.49;87.00
70421;SHT31;57848;51.938;15.520;2023-02-11T06:55:45;3.53;87.08
70421;SHT31;57848;51.938;15.520;2023-02-11T06:58:10;3.56;87.22
70421;SHT31;57848;51.938;15.520;2023-02-11T07:00:36;3.59;87.25
70421;SHT31;57848;51.938;15.520;2023-02-11T07:03:01;3.66;87.27
70421;SHT31;57848;51.938;15.520;2023-02-11T07:05:26;3.62;87.48
70421;SHT31;57848;51.938;15.520;2023-02-11T07:07:52;3.63;87.60
70421;SHT31;57848;51.938;15.520;2023-02-11T07:10:17;3.66;87.75
70421;SHT31;57848;51.938;15.520;2023-02-11T07:12:43;3.67;87.73
70421;SHT31;57848;51.938;15.520;2023-02-11T07:15:08;3.63;87.79
70421;SHT31;57848;51.938;15.520;2023-02-11T07:17:34;3.64;88.03
70421;SHT31;57848;51.938;15.520;2023-02-11T07:20:00;3.69;88.01
70421;SHT31;57848;51.938;15.520;2023-02-11T07:22:25;3.73;88.00
70421;SHT31;57848;51.938;15.520;2023-02-11T07:24:51;3.78;88.04
70421;SHT31;57848;51.938;15.520;2023-02-11T07:27:16;3.81;88.00
70421;SHT31;57848;51.938;15.520;2023-02-11T07:29:42;3.81;88.04
70421;SHT31;57848;51.938;15.520;2023-02-11T07:32:07;3.84;88.07
70421;SHT31;57848;51.938;15.520;2023-02-11T07:34:33;3.84;88.11
70421;SHT31;57848;51.938;15.520;2023-02-11T07:36:58;3.78;88.37
70421;SHT31;57848;51.938;15.520;2023-02-11T07:39:24;3.81;88.41
70421;SHT31;57848;51.938;15.520;2023-02-11T07:41:52;3.90;88.22
70421;SHT31;57848;51.938;15.520;2023-02-11T07:44:18;3.90;88.05
70421;SHT31;57848;51.938;15.520;2023-02-11T07:46:44;3.97;87.86
70421;SHT31;57848;51.938;15.520;2023-02-11T07:49:10;3.99;87.82
70421;SHT31;57848;51.938;15.520;2023-02-11T07:51:35;3.95;87.92
70421;SHT31;57848;51.938;15.520;2023-02-11T07:54:01;3.90;88.11
70421;SHT31;57848;51.938;15.520;2023-02-11T07:56:27;3.97;87.96
70421;SHT31;57848;51.938;15.520;2023-02-11T07:58:54;4.01;87.79
70421;SHT31;57848;51.938;15.520;2023-02-11T08:01:24;4.06;87.72
70421;SHT31;57848;51.938;15.520;2023-02-11T08:03:53;4.04;87.63
70421;SHT31;57848;51.938;15.520;2023-02-11T08:06:21;4.04;87.69
70421;SHT31;57848;51.938;15.520;2023-02-11T08:08:48;4.08;87.66
70421;SHT31;57848;51.938;15.520;2023-02-11T08:11:21;4.14;87.63
70421;SHT31;57848;51.938;15.520;2023-02-11T08:13:47;4.12;87.76
70421;SHT31;57848;51.938;15.520;2023-02-11T08:16:21;4.24;87.57
70421;SHT31;57848;51.938;15.520;2023-02-11T08:18:48;4.19;87.63
70421;SHT31;57848;51.938;15.520;2023-02-11T08:21:13;4.26;87.41
70421;SHT31;57848;51.938;15.520;2023-02-11T08:23:39;4.31;87.30
70421;SHT31;57848;51.938;15.520;2023-02-11T08:26:08;4.31;87.32
70421;SHT31;57848;51.938;15.520;2023-02-11T08:28:36;4.29;87.37
70421;SHT31;57848;51.938;15.520;2023-02-11T08:31:10;4.35;87.16
70421;SHT31;57848;51.938;15.520;2023-02-11T08:33:37;4.46;86.88
70421;SHT31;57848;51.938;15.520;2023-02-11T08:36:14;4.39;86.91
70421;SHT31;57848;51.938;15.520;2023-02-11T08:38:40;4.41;86.92
70421;SHT31;57848;51.938;15.520;2023-02-11T08:41:06;4.46;86.88
70421;SHT31;57848;51.938;15.520;2023-02-11T08:43:32;4.49;86.67
70421;SHT31;57848;51.938;15.520;2023-02-11T08:45:59;4.53;86.64
70421;SHT31;57848;51.938;15.520;2023-02-11T08:48:25;4.59;86.56
70421;SHT31;57848;51.938;15.520;2023-02-11T08:50:53;4.57;86.71
70421;SHT31;57848;51.938;15.520;2023-02-11T08:53:18;4.66;86.57
70421;SHT31;57848;51.938;15.520;2023-02-11T08:55:48;4.69;86.76
70421;SHT31;57848;51.938;15.520;2023-02-11T08:58:13;4.70;86.74
70421;SHT31;57848;51.938;15.520;2023-02-11T09:00:39;4.79;86.57
70421;SHT31;57848;51.938;15.520;2023-02-11T09:03:04;4.67;86.81
70421;SHT31;57848;51.938;15.520;2023-02-11T09:05:30;4.72;86.78
70421;SHT31;57848;51.938;15.520;2023-02-11T09:07:55;4.69;87.02
70421;SHT31;57848;51.938;15.520;2023-02-11T09:10:20;4.76;86.93
70421;SHT31;57848;51.938;15.520;2023-02-11T09:12:46;4.77;86.91
70421;SHT31;57848;51.938;15.520;2023-02-11T09:15:11;4.73;86.94
70421;SHT31;57848;51.938;15.520;2023-02-11T09:17:36;4.73;87.00
70421;SHT31;57848;51.938;15.520;2023-02-11T09:20:02;4.80;86.84
70421;SHT31;57848;51.938;15.520;2023-02-11T09:22:28;4.74;86.90
70421;SHT31;57848;51.938;15.520;2023-02-11T09:24:53;4.79;86.99
70421;SHT31;57848;51.938;15.520;2023-02-11T09:27:18;4.76;86.98
70421;SHT31;57848;51.938;15.520;2023-02-11T09:29:44;4.81;87.06
70421;SHT31;57848;51.938;15.520;2023-02-11T09:32:09;4.84;87.13
70421;SHT31;57848;51.938;15.520;2023-02-11T09:34:34;5.01;86.60
70421;SHT31;57848;51.938;15.520;2023-02-11T09:37:00;5.07;86.43
70421;SHT31;57848;51.938;15.520;2023-02-11T09:39:25;5.13;86.28
70421;SHT31;57848;51.938;15.520;2023-02-11T09:44:37;5.11;86.05
70421;SHT31;57848;51.938;15.520;2023-02-11T09:50:04;5.28;85.83
70421;SHT31;57848;51.938;15.520;2023-02-11T09:55:30;5.24;85.78
70421;SHT31;57848;51.938;15.520;2023-02-11T09:58:00;5.17;85.82
70421;SHT31;57848;51.938;15.520;2023-02-11T10:00:36;5.23;85.85
70421;SHT31;57848;51.938;15.520;2023-02-11T10:03:31;5.23;85.67
70421;SHT31;57848;51.938;15.520;2023-02-11T10:06:27;5.30;85.53
70421;SHT31;57848;51.938;15.520;2023-02-11T10:12:30;5.24;85.53
70421;SHT31;57848;51.938;15.520;2023-02-11T10:15:05;5.25;85.64
70421;SHT31;57848;51.938;15.520;2023-02-11T10:23:07;5.38;85.41
70421;SHT31;57848;51.938;15.520;2023-02-11T10:25:40;5.38;85.05
70421;SHT31;57848;51.938;15.520;2023-02-11T10:28:18;5.42;84.98
70421;SHT31;57848;51.938;15.520;2023-02-11T10:33:24;5.42;84.98
70421;SHT31;57848;51.938;15.520;2023-02-11T10:35:51;5.39;84.99
70421;SHT31;57848;51.938;15.520;2023-02-11T10:38:16;5.44;85.00
70421;SHT31;57848;51.938;15.520;2023-02-11T10:40:42;5.45;85.05
70421;SHT31;57848;51.938;15.520;2023-02-11T10:43:16;5.46;85.04
70421;SHT31;57848;51.938;15.520;2023-02-11T10:45:45;5.48;85.16
70421;SHT31;57848;51.938;15.520;2023-02-11T10:48:46;5.48;85.11
70421;SHT31;57848;51.938;15.520;2023-02-11T10:51:27;5.49;85.22
70421;SHT31;57848;51.938;15.520;2023-02-11T10:56:48;5.58;85.24
70421;SHT31;57848;51.938;15.520;2023-02-11T11:01:51;5.54;85.84
70421;SHT31;57848;51.938;15.520;2023-02-11T11:06:56;5.49;86.44
70421;SHT31;57848;51.938;15.520;2023-02-11T11:09:29;5.55;86.86
70421;SHT31;57848;51.938;15.520;2023-02-11T11:12:02;5.56;87.15
70421;SHT31;57848;51.938;15.520;2023-02-11T11:14:28;5.56;87.40
70421;SHT31;57848;51.938;15.520;2023-02-11T11:16:54;5.51;87.76
70421;SHT31;57848;51.938;15.520;2023-02-11T11:19:22;5.55;87.87
70421;SHT31;57848;51.938;15.520;2023-02-11T11:21:52;5.58;88.11
70421;SHT31;57848;51.938;15.520;2023-02-11T11:24:40;5.54;88.35
70421;SHT31;57848;51.938;15.520;2023-02-11T11:27:16;5.54;88.39
70421;SHT31;57848;51.938;15.520;2023-02-11T11:29:48;5.63;88.27
70421;SHT31;57848;51.938;15.520;2023-02-11T11:32:29;5.69;88.11
70421;SHT31;57848;51.938;15.520;2023-02-11T11:35:01;5.63;88.14
70421;SHT31;57848;51.938;15.520;2023-02-11T11:37:31;5.65;88.17
70421;SHT31;57848;51.938;15.520;2023-02-11T11:45:01;5.75;88.27
70421;SHT31;57848;51.938;15.520;2023-02-11T11:58:00;5.82;88.01
70421;SHT31;57848;51.938;15.520;2023-02-11T12:00:36;5.80;88.07
70421;SHT31;57848;51.938;15.520;2023-02-11T12:11:55;5.90;88.03
70421;SHT31;57848;51.938;15.520;2023-02-11T12:20:03;5.90;88.29
70421;SHT31;57848;51.938;15.520;2023-02-11T12:25:29;5.92;88.51
70421;SHT31;57848;51.938;15.520;2023-02-11T12:28:25;5.92;88.56
70421;SHT31;57848;51.938;15.520;2023-02-11T12:33:35;5.85;88.98
70421;SHT31;57848;51.938;15.520;2023-02-11T12:36:16;5.87;88.91
70421;SHT31;57848;51.938;15.520;2023-02-11T12:42:01;5.96;89.14
70421;SHT31;57848;51.938;15.520;2023-02-11T12:45:00;5.93;89.41
70421;SHT31;57848;51.938;15.520;2023-02-11T12:55:25;5.93;90.43
70421;SHT31;57848;51.938;15.520;2023-02-11T12:57:54;5.92;90.62
70421;SHT31;57848;51.938;15.520;2023-02-11T13:00:23;5.92;90.66
70421;SHT31;57848;51.938;15.520;2023-02-11T13:02:58;5.89;90.83
70421;SHT31;57848;51.938;15.520;2023-02-11T13:05:45;5.83;91.12
70421;SHT31;57848;51.938;15.520;2023-02-11T13:08:34;5.86;91.24
70421;SHT31;57848;51.938;15.520;2023-02-11T13:11:03;5.82;91.24
70421;SHT31;57848;51.938;15.520;2023-02-11T13:13:41;5.83;91.43
70421;SHT31;57848;51.938;15.520;2023-02-11T13:16:32;5.79;91.65
70421;SHT31;57848;51.938;15.520;2023-02-11T13:21:52;5.79;92.21
70421;SHT31;57848;51.938;15.520;2023-02-11T13:27:37;5.85;92.19
70421;SHT31;57848;51.938;15.520;2023-02-11T13:30:34;5.77;92.37
70421;SHT31;57848;51.938;15.520;2023-02-11T13:33:03;5.75;92.78
70421;SHT31;57848;51.938;15.520;2023-02-11T13:35:37;5.66;92.72
70421;SHT31;57848;51.938;15.520;2023-02-11T13:38:21;5.63;93.03
70421;SHT31;57848;51.938;15.520;2023-02-11T13:41:03;5.60;93.19
70421;SHT31;57848;51.938;15.520;2023-02-11T13:43:32;5.58;93.27
70421;SHT31;57848;51.938;15.520;2023-02-11T13:46:03;5.65;93.26
70421;SHT31;57848;51.938;15.520;2023-02-11T13:53:28;5.54;93.40
70421;SHT31;57848;51.938;15.520;2023-02-11T13:56:10;5.55;93.40
70421;SHT31;57848;51.938;15.520;2023-02-11T13:58:46;5.49;93.61
70421;SHT31;57848;51.938;15.520;2023-02-11T14:04:35;5.45;93.80
70421;SHT31;57848;51.938;15.520;2023-02-11T14:07:32;5.52;93.65
70421;SHT31;57848;51.938;15.520;2023-02-11T14:13:25;5.63;93.66
70421;SHT31;57848;51.938;15.520;2023-02-11T14:23:50;5.59;93.73
70421;SHT31;57848;51.938;15.520;2023-02-11T14:29:12;5.56;94.08
70421;SHT31;57848;51.938;15.520;2023-02-11T14:35:09;5.51;94.19
70421;SHT31;57848;51.938;15.520;2023-02-11T14:37:51;5.54;94.25
70421;SHT31;57848;51.938;15.520;2023-02-11T14:40:37;5.49;94.31
70421;SHT31;57848;51.938;15.520;2023-02-11T14:43:27;5.51;94.38
70421;SHT31;57848;51.938;15.520;2023-02-11T14:45:56;5.56;94.25
70421;SHT31;57848;51.938;15.520;2023-02-11T14:48:46;5.54;94.16
70421;SHT31;57848;51.938;15.520;2023-02-11T14:51:18;5.44;94.29
70421;SHT31;57848;51.938;15.520;2023-02-11T14:53:48;5.51;94.29
70421;SHT31;57848;51.938;15.520;2023-02-11T14:56:26;5.48;94.29
70421;SHT31;57848;51.938;15.520;2023-02-11T14:58:56;5.58;94.22
70421;SHT31;57848;51.938;15.520;2023-02-11T15:01:33;5.58;94.18
70421;SHT31;57848;51.938;15.520;2023-02-11T15:04:04;5.55;94.28
70421;SHT31;57848;51.938;15.520;2023-02-11T15:06:32;5.56;94.20
70421;SHT31;57848;51.938;15.520;2023-02-11T15:11:28;5.60;94.16
70421;SHT31;57848;51.938;15.520;2023-02-11T15:13:55;5.58;94.26
70421;SHT31;57848;51.938;15.520;2023-02-11T15:16:24;5.62;94.14
70421;SHT31;57848;51.938;15.520;2023-02-11T15:18:58;5.62;94.23
70421;SHT31;57848;51.938;15.520;2023-02-11T15:21:28;5.62;94.24
70421;SHT31;57848;51.938;15.520;2023-02-11T15:24:03;5.63;94.22
70421;SHT31;57848;51.938;15.520;2023-02-11T15:26:31;5.65;94.34
70421;SHT31;57848;51.938;15.520;2023-02-11T15:28:57;5.67;94.36
70421;SHT31;57848;51.938;15.520;2023-02-11T15:31:25;5.65;94.31
70421;SHT31;57848;51.938;15.520;2023-02-11T15:33:51;5.66;94.43
70421;SHT31;57848;51.938;15.520;2023-02-11T15:36:20;5.65;94.44
70421;SHT31;57848;51.938;15.520;2023-02-11T15:39:16;5.69;94.37
70421;SHT31;57848;51.938;15.520;2023-02-11T15:41:41;5.67;94.39
70421;SHT31;57848;51.938;15.520;2023-02-11T15:44:25;5.75;94.40
70421;SHT31;57848;51.938;15.520;2023-02-11T15:46:51;5.69;94.45
70421;SHT31;57848;51.938;15.520;2023-02-11T15:49:16;5.75;94.44
70421;SHT31;57848;51.938;15.520;2023-02-11T15:51:44;5.73;94.45
70421;SHT31;57848;51.938;15.520;2023-02-11T15:54:21;5.69;94.59
70421;SHT31;57848;51.938;15.520;2023-02-11T15:56:50;5.77;94.45
70421;SHT31;57848;51.938;15.520;2023-02-11T15:59:25;5.73;94.76
70421;SHT31;57848;51.938;15.520;2023-02-11T16:01:52;5.76;94.72
70421;SHT31;57848;51.938;15.520;2023-02-11T16:04:20;5.67;94.79
70421;SHT31;57848;51.938;15.520;2023-02-11T16:06:46;5.73;94.92
70421;SHT31;57848;51.938;15.520;2023-02-11T16:17:05;5.75;94.99
70421;SHT31;57848;51.938;15.520;2023-02-11T16:19:33;5.77;94.95
70421;SHT31;57848;51.938;15.520;2023-02-11T16:22:01;5.85;94.97
70421;SHT31;57848;51.938;15.520;2023-02-11T16:24:32;5.85;95.05
70421;SHT31;57848;51.938;15.520;2023-02-11T16:27:06;5.86;95.07
70421;SHT31;57848;51.938;15.520;2023-02-11T16:29:35;5.86;95.11
70421;SHT31;57848;51.938;15.520;2023-02-11T16:32:15;5.85;95.17
70421;SHT31;57848;51.938;15.520;2023-02-11T16:34:41;5.89;95.14
70421;SHT31;57848;51.938;15.520;2023-02-11T16:37:06;5.86;95.21
70421;SHT31;57848;51.938;15.520;2023-02-11T16:39:32;5.97;95.01
70421;SHT31;57848;51.938;15.520;2023-02-11T16:41:58;5.99;94.94
70421;SHT31;57848;51.938;15.520;2023-02-11T16:44:24;5.94;95.14
70421;SHT31;57848;51.938;15.520;2023-02-11T16:46:49;5.96;95.15
70421;SHT31;57848;51.938;15.520;2023-02-11T16:51:47;6.03;95.18
70421;SHT31;57848;51.938;15.520;2023-02-11T16:54:14;6.00;95.32
70421;SHT31;57848;51.938;15.520;2023-02-11T16:56:40;5.97;95.30
70421;SHT31;57848;51.938;15.520;2023-02-11T16:59:06;6.00;95.28
70421;SHT31;57848;51.938;15.520;2023-02-11T17:01:32;6.00;95.38
70421;SHT31;57848;51.938;15.520;2023-02-11T17:03:58;6.02;95.31
70421;SHT31;57848;51.938;15.520;2023-02-11T17:06:24;6.03;95.40
70421;SHT31;57848;51.938;15.520;2023-02-11T17:08:49;6.06;95.28
70421;SHT31;57848;51.938;15.520;2023-02-11T17:11:14;6.11;95.39
70421;SHT31;57848;51.938;15.520;2023-02-11T17:13:44;6.10;95.36
70421;SHT31;57848;51.938;15.520;2023-02-11T17:16:18;6.18;95.24
70421;SHT31;57848;51.938;15.520;2023-02-11T17:18:44;6.17;95.23
70421;SHT31;57848;51.938;15.520;2023-02-11T17:21:10;6.17;95.34
70421;SHT31;57848;51.938;15.520;2023-02-11T17:23:35;6.18;95.27
70421;SHT31;57848;51.938;15.520;2023-02-11T17:26:02;6.11;95.46
70421;SHT31;57848;51.938;15.520;2023-02-11T17:28:27;6.21;95.37
70421;SHT31;57848;51.938;15.520;2023-02-11T17:30:52;6.14;95.61
70421;SHT31;57848;51.938;15.520;2023-02-11T17:33:18;6.23;95.43
70421;SHT31;57848;51.938;15.520;2023-02-11T17:35:44;6.25;95.43
70421;SHT31;57848;51.938;15.520;2023-02-11T17:38:09;6.25;95.37
70421;SHT31;57848;51.938;15.520;2023-02-11T17:40:35;6.24;95.42
70421;SHT31;57848;51.938;15.520;2023-02-11T17:43:00;6.20;95.61
70421;SHT31;57848;51.938;15.520;2023-02-11T17:45:26;6.28;95.50
70421;SHT31;57848;51.938;15.520;2023-02-11T17:47:51;6.27;95.46
70421;SHT31;57848;51.938;15.520;2023-02-11T17:50:17;6.35;95.28
70421;SHT31;57848;51.938;15.520;2023-02-11T17:52:42;6.34;95.41
70421;SHT31;57848;51.938;15.520;2023-02-11T17:55:07;6.31;95.29
70421;SHT31;57848;51.938;15.520;2023-02-11T17:57:33;6.33;95.46
70421;SHT31;57848;51.938;15.520;2023-02-11T17:59:58;6.37;95.44
70421;SHT31;57848;51.938;15.520;2023-02-11T18:02:24;6.34;95.41
70421;SHT31;57848;51.938;15.520;2023-02-11T18:04:49;6.40;95.38
70421;SHT31;57848;51.938;15.520;2023-02-11T18:07:16;6.30;95.44